createdAt,value
2023-05-14T00:00:47.920Z,7.73
2023-05-14T00:03:14.590Z,7.80
2023-05-14T00:05:41.236Z,7.96
2023-05-14T00:08:07.779Z,8.05
2023-05-14T00:10:34.569Z,8.18
2023-05-14T00:13:01.103Z,8.12
2023-05-14T00:15:27.557Z,7.94
2023-05-14T00:17:54.015Z,7.98
2023-05-14T00:20:20.677Z,8.06
2023-05-14T00:22:47.155Z,7.99
2023-05-14T00:25:13.666Z,8.01
2023-05-14T00:27:40.713Z,7.97
2023-05-14T00:30:07.599Z,7.81
2023-05-14T00:32:34.220Z,7.55
2023-05-14T00:35:02.904Z,7.50
2023-05-14T00:37:29.372Z,7.51
2023-05-14T00:39:55.901Z,7.60
2023-05-14T00:42:22.389Z,7.76
2023-05-14T00:44:48.851Z,7.75
2023-05-14T00:47:15.878Z,7.69
2023-05-14T00:49:42.763Z,7.44
2023-05-14T00:52:11.450Z,7.37
2023-05-14T00:54:38.078Z,7.28
2023-05-14T00:57:06.309Z,7.11
2023-05-14T00:59:32.959Z,7.17
2023-05-14T01:01:59.462Z,7.14
2023-05-14T01:04:26.265Z,7.13
2023-05-14T01:07:30.276Z,7.13
2023-05-14T01:10:05.828Z,7.06
2023-05-14T01:12:43.192Z,7.05
2023-05-14T01:15:16.341Z,7.10
2023-05-14T01:17:47.574Z,7.02
2023-05-14T01:20:14.967Z,7.02
2023-05-14T01:22:41.425Z,7.03
2023-05-14T01:25:08.710Z,7.01
2023-05-14T01:28:02.621Z,7.08
2023-05-14T01:30:36.272Z,6.95
2023-05-14T01:33:09.898Z,6.96
2023-05-14T01:35:37.245Z,6.93
2023-05-14T01:38:07.193Z,6.80
2023-05-14T01:40:36.216Z,6.88
2023-05-14T01:43:04.123Z,6.83
2023-05-14T01:45:31.614Z,6.88
2023-05-14T01:47:58.252Z,6.82
2023-05-14T01:50:24.944Z,6.69
2023-05-14T01:52:53.442Z,6.70
2023-05-14T01:55:20.877Z,6.74
2023-05-14T01:57:47.427Z,6.65
2023-05-14T02:00:14.166Z,6.67
2023-05-14T02:02:40.996Z,6.60
2023-05-14T02:05:10.381Z,6.58
2023-05-14T02:07:36.894Z,6.62
2023-05-14T02:10:03.703Z,6.53
2023-05-14T02:12:30.359Z,6.58
2023-05-14T02:14:56.848Z,6.49
2023-05-14T02:17:24.706Z,6.42
2023-05-14T02:19:51.323Z,6.38
2023-05-14T02:22:17.988Z,6.43
2023-05-14T02:24:44.448Z,6.43
2023-05-14T02:27:12.788Z,6.59
2023-05-14T02:29:39.490Z,6.60
2023-05-14T02:32:06.286Z,6.63
2023-05-14T02:34:34.360Z,6.52
2023-05-14T02:37:01.124Z,6.41
2023-05-14T02:39:27.575Z,6.27
2023-05-14T02:41:54.081Z,6.20
2023-05-14T02:44:20.579Z,6.24
2023-05-14T02:46:48.158Z,6.03
2023-05-14T02:49:14.655Z,6.08
2023-05-14T02:51:41.203Z,6.20
2023-05-14T02:54:07.717Z,6.11
2023-05-14T02:56:34.272Z,6.04
2023-05-14T02:59:00.738Z,6.07
2023-05-14T03:01:27.812Z,6.09
2023-05-14T03:03:54.654Z,6.18
2023-05-14T03:06:21.136Z,6.07
2023-05-14T03:08:47.624Z,6.01
2023-05-14T03:11:14.100Z,6.15
2023-05-14T03:13:40.645Z,6.25
2023-05-14T03:16:07.456Z,6.09
2023-05-14T03:18:36.100Z,6.20
2023-05-14T03:21:03.814Z,6.33
2023-05-14T03:23:31.969Z,6.13
2023-05-14T03:25:58.748Z,6.02
2023-05-14T03:28:25.920Z,5.93
2023-05-14T03:30:52.797Z,5.94
2023-05-14T03:33:19.585Z,6.05
2023-05-14T03:35:46.066Z,6.01
2023-05-14T03:38:12.519Z,5.97
2023-05-14T03:40:39.112Z,5.87
2023-05-14T03:43:06.093Z,5.88
2023-05-14T03:45:33.583Z,5.81
2023-05-14T03:48:00.193Z,5.78
2023-05-14T03:50:26.927Z,5.81
2023-05-14T03:52:53.600Z,5.89
2023-05-14T03:55:20.395Z,6.01
2023-05-14T03:57:48.278Z,6.04
2023-05-14T04:00:15.448Z,5.94
2023-05-14T04:02:44.783Z,5.92
2023-05-14T04:05:11.431Z,5.75
2023-05-14T04:07:38.063Z,5.64
2023-05-14T04:10:04.979Z,5.60
2023-05-14T04:12:34.000Z,5.68
2023-05-14T04:15:01.242Z,5.87
2023-05-14T04:17:27.943Z,5.86
2023-05-14T04:19:54.590Z,5.88
2023-05-14T04:22:21.062Z,6.03
2023-05-14T04:24:47.490Z,6.09
2023-05-14T04:27:21.665Z,6.07
2023-05-14T04:29:49.606Z,6.08
2023-05-14T04:32:16.578Z,6.20
2023-05-14T04:34:43.201Z,6.28
2023-05-14T04:37:10.057Z,6.37
2023-05-14T04:39:36.506Z,6.49
2023-05-14T04:42:03.213Z,6.45
2023-05-14T04:44:29.725Z,6.45
2023-05-14T04:46:56.200Z,6.60
2023-05-14T04:49:22.652Z,6.66
2023-05-14T04:51:49.392Z,6.71
2023-05-14T04:54:15.877Z,6.60
2023-05-14T04:56:42.331Z,6.53
2023-05-14T04:59:08.744Z,6.65
2023-05-14T05:01:35.300Z,6.66
2023-05-14T05:04:02.229Z,6.56
2023-05-14T05:06:28.724Z,6.58
2023-05-14T05:08:55.997Z,6.62
2023-05-14T05:11:22.464Z,6.90
2023-05-14T05:13:48.910Z,7.01
2023-05-14T05:16:15.596Z,7.05
2023-05-14T05:18:42.213Z,7.84
2023-05-14T05:21:08.717Z,7.87
2023-05-14T05:23:35.170Z,7.73
2023-05-14T05:26:01.685Z,7.92
2023-05-14T05:28:28.168Z,8.12
2023-05-14T05:30:55.254Z,8.14
2023-05-14T05:33:24.716Z,9.96
2023-05-14T05:35:52.391Z,10.48
2023-05-14T05:38:18.874Z,11.00
2023-05-14T05:40:45.336Z,10.85
2023-05-14T05:43:13.829Z,10.13
2023-05-14T05:45:40.777Z,10.57
2023-05-14T05:48:07.345Z,10.79
2023-05-14T05:50:33.863Z,10.75
2023-05-14T05:53:00.508Z,10.21
2023-05-14T05:55:27.082Z,10.03
2023-05-14T05:57:53.703Z,9.75
2023-05-14T06:00:20.519Z,9.76
2023-05-14T06:02:47.162Z,9.73
2023-05-14T06:05:13.771Z,10.31
2023-05-14T06:07:40.270Z,11.66
2023-05-14T06:10:07.403Z,11.37
2023-05-14T06:12:33.856Z,11.59
2023-05-14T06:15:00.335Z,11.46
2023-05-14T06:17:27.168Z,11.03
2023-05-14T06:19:53.661Z,10.77
2023-05-14T06:22:20.351Z,10.57
2023-05-14T06:24:48.048Z,11.08
2023-05-14T06:27:14.876Z,12.09
2023-05-14T06:29:41.404Z,11.95
2023-05-14T06:32:08.389Z,11.40
2023-05-14T06:34:34.904Z,11.12
2023-05-14T06:37:04.274Z,11.14
2023-05-14T06:39:30.916Z,11.50
2023-05-14T06:41:59.598Z,12.19
2023-05-14T06:44:28.478Z,12.69
2023-05-14T06:46:57.364Z,12.21
2023-05-14T06:50:51.842Z,12.70
2023-05-14T06:53:08.140Z,14.13
2023-05-14T06:55:37.532Z,13.95
2023-05-14T06:58:10.582Z,16.26
2023-05-14T07:00:37.451Z,16.13
2023-05-14T07:03:04.047Z,15.18
2023-05-14T07:05:30.868Z,14.13
2023-05-14T07:07:57.613Z,13.46
2023-05-14T07:10:25.051Z,13.64
2023-05-14T07:12:51.705Z,14.22
2023-05-14T07:15:18.135Z,14.47
2023-05-14T07:17:45.012Z,18.23
2023-05-14T07:20:12.066Z,19.99
2023-05-14T07:22:38.493Z,20.35
2023-05-14T07:25:05.308Z,21.46
2023-05-14T07:27:31.770Z,21.67
2023-05-14T07:29:58.255Z,21.12
2023-05-14T07:32:25.461Z,22.08
2023-05-14T07:34:52.027Z,22.46
2023-05-14T07:37:18.861Z,23.53
2023-05-14T07:39:45.525Z,22.82
2023-05-14T07:42:19.404Z,22.67
2023-05-14T07:44:51.921Z,21.77
2023-05-14T07:47:18.431Z,20.96
2023-05-14T07:49:45.062Z,20.14
2023-05-14T07:52:11.532Z,20.21
2023-05-14T07:54:38.511Z,20.00
2023-05-14T07:57:05.258Z,19.43
2023-05-14T07:59:32.026Z,19.82
2023-05-14T08:01:58.536Z,19.63
2023-05-14T08:04:25.270Z,19.54
2023-05-14T08:06:51.972Z,20.05
2023-05-14T08:09:18.501Z,20.12
2023-05-14T08:11:45.038Z,19.96
2023-05-14T08:14:11.488Z,20.01
2023-05-14T08:16:38.756Z,19.82
2023-05-14T08:19:05.438Z,19.59
2023-05-14T08:21:32.733Z,19.15
2023-05-14T08:23:59.324Z,18.86
2023-05-14T08:26:25.847Z,18.70
2023-05-14T08:28:54.164Z,18.90
2023-05-14T08:31:20.682Z,19.11
2023-05-14T08:33:50.594Z,19.24
2023-05-14T08:36:17.077Z,19.00
2023-05-14T08:38:45.317Z,18.84
2023-05-14T08:41:12.903Z,19.27
2023-05-14T08:44:02.552Z,19.87
2023-05-14T08:46:31.014Z,19.53
2023-05-14T08:49:11.229Z,18.48
2023-05-14T08:51:38.358Z,18.25
2023-05-14T08:54:05.750Z,17.85
2023-05-14T08:56:35.938Z,17.64
2023-05-14T08:59:02.432Z,17.60
2023-05-14T09:01:29.867Z,17.98
2023-05-14T09:03:56.719Z,18.12
2023-05-14T09:06:24.250Z,17.63
2023-05-14T09:08:50.791Z,17.51
2023-05-14T09:11:17.216Z,17.30
2023-05-14T09:13:43.710Z,17.51
2023-05-14T09:16:10.286Z,17.88
2023-05-14T09:18:36.981Z,17.57
2023-05-14T09:21:04.429Z,19.15
2023-05-14T09:23:34.473Z,18.90
2023-05-14T09:26:05.511Z,18.02
2023-05-14T09:28:32.023Z,17.32
2023-05-14T09:30:58.463Z,16.95
2023-05-14T09:33:29.418Z,17.17
2023-05-14T09:35:59.647Z,17.58
2023-05-14T09:38:30.865Z,18.20
2023-05-14T09:40:58.566Z,17.60
2023-05-14T09:43:26.000Z,17.12
2023-05-14T09:45:52.926Z,16.80
2023-05-14T09:48:19.770Z,16.67
2023-05-14T09:50:47.006Z,16.62
2023-05-14T09:53:13.920Z,17.01
2023-05-14T09:55:40.471Z,17.33
2023-05-14T09:58:06.960Z,18.00
2023-05-14T10:00:34.713Z,18.55
2023-05-14T10:03:08.129Z,18.07
2023-05-14T10:05:40.517Z,17.59
2023-05-14T10:08:13.568Z,17.41
2023-05-14T10:10:40.479Z,17.13
2023-05-14T10:13:14.555Z,17.21
2023-05-14T10:16:11.244Z,17.12
2023-05-14T10:18:42.836Z,17.13
2023-05-14T10:21:11.397Z,17.55
2023-05-14T10:23:38.796Z,17.61
2023-05-14T10:26:06.416Z,17.40
2023-05-14T10:28:33.538Z,18.06
2023-05-14T10:31:00.867Z,18.90
2023-05-14T10:33:27.747Z,18.76
2023-05-14T10:36:04.761Z,18.07
2023-05-14T10:38:36.350Z,17.35
2023-05-14T10:41:10.871Z,17.63
2023-05-14T10:43:39.330Z,18.48
2023-05-14T10:46:06.845Z,19.69
2023-05-14T10:48:34.266Z,20.08
2023-05-14T10:51:02.233Z,20.01
2023-05-14T10:53:33.253Z,19.46
2023-05-14T10:56:04.471Z,18.69
2023-05-14T10:58:33.797Z,18.25
2023-05-14T11:01:01.376Z,17.75
2023-05-14T11:03:34.245Z,17.27
2023-05-14T11:06:03.710Z,17.16
2023-05-14T11:08:31.281Z,16.86
2023-05-14T11:10:57.802Z,16.92
2023-05-14T11:13:27.312Z,17.55
2023-05-14T11:15:54.361Z,18.17
2023-05-14T11:18:31.777Z,18.00
2023-05-14T11:20:59.968Z,18.69
2023-05-14T11:23:27.682Z,18.91
2023-05-14T11:25:55.371Z,18.70
2023-05-14T11:28:23.246Z,18.59
2023-05-14T11:30:51.039Z,18.27
2023-05-14T11:33:18.824Z,18.50
2023-05-14T11:35:48.916Z,18.51
2023-05-14T11:38:20.201Z,18.61
2023-05-14T11:40:54.200Z,19.05
2023-05-14T11:43:23.671Z,20.65
2023-05-14T11:45:52.224Z,20.89
2023-05-14T11:48:22.670Z,19.95
2023-05-14T11:50:51.107Z,19.37
2023-05-14T11:53:25.837Z,18.61
2023-05-14T11:55:59.905Z,19.41
2023-05-14T11:58:26.398Z,20.70
2023-05-14T12:00:55.203Z,22.45
2023-05-14T12:03:25.697Z,24.16
2023-05-14T12:06:00.292Z,25.38
2023-05-14T12:08:28.599Z,25.76
2023-05-14T12:10:55.828Z,25.80
2023-05-14T12:13:25.340Z,26.14
2023-05-14T12:16:00.299Z,26.24
2023-05-14T12:18:28.643Z,24.14
2023-05-14T12:20:55.675Z,25.27
2023-05-14T12:23:32.241Z,24.96
2023-05-14T12:26:07.183Z,24.90
2023-05-14T12:30:57.338Z,22.42
2023-05-14T12:33:24.234Z,24.63
2023-05-14T12:35:50.711Z,24.65
2023-05-14T12:38:17.185Z,24.69
2023-05-14T12:40:43.648Z,25.18
2023-05-14T12:43:10.266Z,24.01
2023-05-14T12:45:37.139Z,24.57
2023-05-14T12:48:03.770Z,22.70
2023-05-14T12:50:30.248Z,20.91
2023-05-14T12:52:57.773Z,20.17
2023-05-14T12:55:24.421Z,22.10
2023-05-14T12:57:50.905Z,22.11
2023-05-14T13:00:17.706Z,21.84
2023-05-14T13:02:44.314Z,21.51
2023-05-14T13:05:12.175Z,21.02
2023-05-14T13:07:39.029Z,21.65
2023-05-14T13:10:06.140Z,21.48
2023-05-14T13:12:32.900Z,21.29
2023-05-14T13:14:59.390Z,19.91
2023-05-14T13:17:25.962Z,19.86
2023-05-14T13:19:52.659Z,20.32
2023-05-14T13:22:19.152Z,20.86
2023-05-14T13:24:46.279Z,20.86
2023-05-14T13:27:12.853Z,20.94
2023-05-14T13:29:39.308Z,21.12
2023-05-14T13:32:06.062Z,20.96
2023-05-14T13:34:32.491Z,20.35
2023-05-14T13:36:59.017Z,19.64
2023-05-14T13:39:27.219Z,20.15
2023-05-14T13:41:57.110Z,20.37
2023-05-14T13:44:24.475Z,19.94
2023-05-14T13:46:51.087Z,19.07
2023-05-14T13:49:17.691Z,18.84
2023-05-14T13:51:44.424Z,19.24
2023-05-14T13:54:10.984Z,20.03
2023-05-14T13:56:37.483Z,19.95
2023-05-14T13:59:04.131Z,19.91
2023-05-14T14:01:31.680Z,20.02
2023-05-14T14:03:58.417Z,19.97
2023-05-14T14:06:27.266Z,19.75
2023-05-14T14:08:53.927Z,19.65
2023-05-14T14:11:20.694Z,19.69
2023-05-14T14:13:47.297Z,19.18
2023-05-14T14:16:13.867Z,18.80
2023-05-14T14:18:40.445Z,18.59
2023-05-14T14:21:07.016Z,18.71
2023-05-14T14:23:33.541Z,18.66
2023-05-14T14:26:00.434Z,19.11
2023-05-14T14:28:26.926Z,19.40
2023-05-14T14:30:53.476Z,19.41
2023-05-14T14:33:19.925Z,19.04
2023-05-14T14:35:46.459Z,19.19
2023-05-14T14:38:12.972Z,19.13
2023-05-14T14:40:39.771Z,19.07
2023-05-14T14:43:06.516Z,18.99
2023-05-14T14:45:33.077Z,19.05
2023-05-14T14:48:30.871Z,19.00
2023-05-14T14:50:57.550Z,19.11
2023-05-14T14:53:24.785Z,19.17
2023-05-14T14:55:53.423Z,19.25
2023-05-14T14:58:20.637Z,18.91
2023-05-14T15:00:47.971Z,18.95
2023-05-14T15:03:15.383Z,18.89
2023-05-14T15:05:42.022Z,18.72
2023-05-14T15:08:09.173Z,18.89
2023-05-14T15:10:38.098Z,18.79
2023-05-14T15:13:06.531Z,18.63
2023-05-14T15:15:34.362Z,18.61
2023-05-14T15:18:01.323Z,18.61
2023-05-14T15:20:29.720Z,18.56
2023-05-14T15:22:56.843Z,18.62
2023-05-14T15:25:25.155Z,18.63
2023-05-14T15:27:52.972Z,18.68
2023-05-14T15:30:20.163Z,18.50
2023-05-14T15:32:47.009Z,18.70
2023-05-14T15:35:14.837Z,18.40
2023-05-14T15:37:45.328Z,18.52
2023-05-14T15:40:13.244Z,18.28
2023-05-14T15:42:44.083Z,18.30
2023-05-14T15:45:15.668Z,18.01
2023-05-14T15:47:44.306Z,17.87
2023-05-14T15:50:12.144Z,17.87
2023-05-14T15:52:41.781Z,17.66
2023-05-14T15:55:09.276Z,17.72
2023-05-14T15:57:36.357Z,17.92
2023-05-14T16:00:15.347Z,17.92
2023-05-14T16:02:52.803Z,18.05
2023-05-14T16:05:30.051Z,18.28
2023-05-14T16:08:03.959Z,18.17
2023-05-14T16:10:32.749Z,18.22
2023-05-14T16:12:59.267Z,18.39
2023-05-14T16:15:25.754Z,18.21
2023-05-14T16:17:52.317Z,18.15
2023-05-14T16:20:18.791Z,18.12
2023-05-14T16:22:47.424Z,18.19
2023-05-14T16:25:13.893Z,18.26
2023-05-14T16:27:41.030Z,18.34
2023-05-14T16:30:09.378Z,18.46
2023-05-14T16:32:36.067Z,18.52
2023-05-14T16:35:02.778Z,18.48
2023-05-14T16:37:29.375Z,18.43
2023-05-14T16:39:55.990Z,18.44
2023-05-14T16:42:22.468Z,18.29
2023-05-14T16:44:48.915Z,18.31
2023-05-14T16:47:15.562Z,18.24
2023-05-14T16:49:42.070Z,18.30
2023-05-14T16:52:08.576Z,18.42
2023-05-14T16:54:35.052Z,18.51
2023-05-14T16:57:01.713Z,18.15
2023-05-14T16:59:28.204Z,18.10
2023-05-14T17:01:54.785Z,18.28
2023-05-14T17:04:24.255Z,18.11
2023-05-14T17:06:51.374Z,18.02
2023-05-14T17:09:17.850Z,17.94
2023-05-14T17:11:44.320Z,17.42
2023-05-14T17:14:10.864Z,17.20
2023-05-14T17:16:38.888Z,17.09
2023-05-14T17:19:05.498Z,17.05
2023-05-14T17:21:32.166Z,16.97
2023-05-14T17:23:58.822Z,17.01
2023-05-14T17:26:26.243Z,16.96
2023-05-14T17:28:53.065Z,16.64
2023-05-14T17:31:19.562Z,16.51
2023-05-14T17:33:46.011Z,16.71
2023-05-14T17:36:12.487Z,16.75
2023-05-14T17:38:39.058Z,16.60
2023-05-14T17:41:05.606Z,16.75
2023-05-14T17:43:32.106Z,16.80
2023-05-14T17:45:58.806Z,16.69
2023-05-14T17:48:25.274Z,16.89
2023-05-14T17:50:52.121Z,16.87
2023-05-14T17:53:19.048Z,16.88
2023-05-14T17:55:45.832Z,16.69
2023-05-14T17:58:14.326Z,16.65
2023-05-14T18:00:41.346Z,16.49
2023-05-14T18:03:08.050Z,16.10
2023-05-14T18:05:34.968Z,15.93
2023-05-14T18:08:01.512Z,15.78
2023-05-14T18:10:29.547Z,15.58
2023-05-14T18:12:56.575Z,15.52
2023-05-14T18:15:25.458Z,15.27
2023-05-14T18:17:52.703Z,15.03
2023-05-14T18:20:19.666Z,14.93
2023-05-14T18:22:46.149Z,14.82
2023-05-14T18:25:13.599Z,14.69
2023-05-14T18:27:44.344Z,14.59
2023-05-14T18:30:15.189Z,14.44
2023-05-14T18:32:43.948Z,14.32
2023-05-14T18:35:11.873Z,14.21
2023-05-14T18:37:38.628Z,14.10
2023-05-14T18:40:07.035Z,14.05
2023-05-14T18:42:34.676Z,13.91
2023-05-14T18:45:01.529Z,13.87
2023-05-14T18:47:28.410Z,13.77
2023-05-14T18:49:57.634Z,13.76
2023-05-14T18:52:24.712Z,13.72
2023-05-14T18:54:51.223Z,13.67
2023-05-14T18:57:17.787Z,13.56
2023-05-14T18:59:44.272Z,13.45
2023-05-14T19:02:10.916Z,13.55
2023-05-14T19:04:50.638Z,13.36
2023-05-14T19:07:18.856Z,13.38
2023-05-14T19:09:46.183Z,13.21
2023-05-14T19:12:16.619Z,13.10
2023-05-14T19:14:43.266Z,13.02
2023-05-14T19:17:10.051Z,12.76
2023-05-14T19:19:37.256Z,12.88
2023-05-14T19:22:03.772Z,12.75
2023-05-14T19:24:30.270Z,12.67
2023-05-14T19:26:56.886Z,12.72
2023-05-14T19:29:23.349Z,12.58
2023-05-14T19:31:50.017Z,12.36
2023-05-14T19:34:16.713Z,12.37
2023-05-14T19:36:43.253Z,12.64
2023-05-14T19:39:09.767Z,12.80
2023-05-14T19:41:36.307Z,12.85
2023-05-14T19:44:03.619Z,12.58
2023-05-14T19:46:30.226Z,12.51
2023-05-14T19:48:56.709Z,12.58
2023-05-14T19:51:23.201Z,12.37
2023-05-14T19:53:49.785Z,12.35
2023-05-14T19:56:16.556Z,12.28
2023-05-14T19:58:44.153Z,12.22
2023-05-14T20:01:11.868Z,12.19
2023-05-14T20:03:38.576Z,12.17
2023-05-14T20:06:05.692Z,12.11
2023-05-14T20:08:32.311Z,11.87
2023-05-14T20:10:58.816Z,12.03
2023-05-14T20:13:25.441Z,11.78
2023-05-14T20:15:52.383Z,11.90
2023-05-14T20:18:18.993Z,11.77
2023-05-14T20:20:45.443Z,11.77
2023-05-14T20:23:11.885Z,11.80
2023-05-14T20:25:38.391Z,11.97
2023-05-14T20:28:04.981Z,11.91
2023-05-14T20:30:31.556Z,11.53
2023-05-14T20:32:58.265Z,11.46
2023-05-14T20:35:24.977Z,11.62
2023-05-14T20:37:51.756Z,11.75
2023-05-14T20:40:18.424Z,11.65
2023-05-14T20:42:44.954Z,11.64
2023-05-14T20:45:11.714Z,11.43
2023-05-14T20:47:38.194Z,11.11
2023-05-14T20:50:05.137Z,10.96
2023-05-14T20:52:31.670Z,10.73
2023-05-14T20:55:00.118Z,10.78
2023-05-14T20:57:28.246Z,10.70
2023-05-14T20:59:54.779Z,10.53
2023-05-14T21:02:21.474Z,10.62
2023-05-14T21:04:48.225Z,10.72
2023-05-14T21:07:14.810Z,10.64
2023-05-14T21:09:41.444Z,10.50
2023-05-14T21:12:08.235Z,10.58
2023-05-14T21:14:34.760Z,10.40
2023-05-14T21:17:01.301Z,10.34
2023-05-14T21:19:27.847Z,10.27
2023-05-14T21:21:54.293Z,10.37
2023-05-14T21:24:20.821Z,10.22
2023-05-14T21:26:47.545Z,10.20
2023-05-14T21:29:14.012Z,9.93
2023-05-14T21:31:40.772Z,9.91
2023-05-14T21:34:07.399Z,9.88
2023-05-14T21:36:33.938Z,9.77
2023-05-14T21:39:00.440Z,9.85
2023-05-14T21:41:26.951Z,9.86
2023-05-14T21:43:53.418Z,9.95
2023-05-14T21:46:19.953Z,9.96
2023-05-14T21:48:46.587Z,10.00
2023-05-14T21:51:13.175Z,10.01
2023-05-14T21:53:40.515Z,9.99
2023-05-14T21:56:08.138Z,9.87
2023-05-14T21:58:36.454Z,9.82
2023-05-14T22:01:02.951Z,9.68
2023-05-14T22:03:29.420Z,9.45
2023-05-14T22:05:56.206Z,9.31
2023-05-14T22:08:23.323Z,9.50
2023-05-14T22:10:49.799Z,9.48
2023-05-14T22:13:16.222Z,9.26
2023-05-14T22:15:42.724Z,9.20
2023-05-14T22:18:09.250Z,9.31
2023-05-14T22:20:36.081Z,9.47
2023-05-14T22:23:02.531Z,9.51
2023-05-14T22:25:29.032Z,9.59
2023-05-14T22:27:55.454Z,9.68
2023-05-14T22:30:22.093Z,9.51
2023-05-14T22:32:48.609Z,9.40
2023-05-14T22:35:15.291Z,9.40
2023-05-14T22:37:41.745Z,9.27
2023-05-14T22:40:09.098Z,9.23
2023-05-14T22:42:35.636Z,9.25
2023-05-14T22:45:02.131Z,9.16
2023-05-14T22:47:28.762Z,9.19
2023-05-14T22:49:55.258Z,9.40
2023-05-14T22:52:22.004Z,9.30
2023-05-14T22:54:50.926Z,9.36
2023-05-14T22:57:17.853Z,9.34
2023-05-14T22:59:44.305Z,9.21
2023-05-14T23:02:10.981Z,9.18
2023-05-14T23:04:37.503Z,9.42
2023-05-14T23:07:04.297Z,9.23
2023-05-14T23:09:30.827Z,9.31
2023-05-14T23:11:57.298Z,9.15
2023-05-14T23:14:23.736Z,8.98
2023-05-14T23:16:50.198Z,8.89
2023-05-14T23:19:16.898Z,8.98
2023-05-14T23:21:43.501Z,9.15
2023-05-14T23:24:09.951Z,9.22
2023-05-14T23:26:36.400Z,9.17
2023-05-14T23:29:02.866Z,9.11
2023-05-14T23:31:29.383Z,9.07
2023-05-14T23:33:56.847Z,9.22
2023-05-14T23:36:23.614Z,9.27
2023-05-14T23:38:50.244Z,9.17
2023-05-14T23:41:16.736Z,9.30
2023-05-14T23:43:43.165Z,9.32
2023-05-14T23:46:09.733Z,9.21
2023-05-14T23:48:36.248Z,9.07
2023-05-14T23:51:02.698Z,8.96
2023-05-14T23:53:29.148Z,9.04
2023-05-14T23:55:55.924Z,9.07
2023-05-14T23:58:22.643Z,8.97
